Tiempo atmosférico en la estación meteorológica de Quintanar De La Orden, Toledo (691 m.)



Fecha
DESCASC
Temp. máxima en grados centígrados (hora)
DESCASC
Temp. mínima en grados centígrados (hora)
DESCASC
Temp. media en grados centígrados
DESCASC
Racha de viento máxima en m/sg (hora)
DESCASC
Velocidad máxima media en intervalos de 10 minutos(hora)
DESCASC
Precipitaciones diarias en mm
DESCASC
Precipitaciones de 00:00 a 06:00 en mm
DESCASC
Precipitaciones de 06:00 a 12:00 en mm
DESCASC
Precipitaciones de 12:00 a 18:00 en mm
DESCASC
Precipitaciones de 18:00 a 24:00 en mm
DESCASC
15-08-2019 35.2 (17:30) 16.9 (07:10) 26.1 6.39 (15:10) 2.22 (09:50) 0 0 0 0 0
14-08-2019 33.3 (19:20) 17.9 (00:00) 25.6 6.94 (18:10) 2.78 (16:00) 0 0 0 0 0
13-08-2019 29.6 (19:50) 16.6 (00:00) 23.1 6.94 (18:50) 2.78 (18:40) 0 0 0 0 0
12-08-2019 28.6 (16:50) 13.3 (00:00) 21 8.61 (11:50) 3.33 (12:50) 0 0 0 0 0
11-08-2019 31.2 (16:30) 17.9 (00:00) 24.6 9.72 (19:20) 4.72 (19:20) 0 0 0 0 0
10-08-2019 33.4 (19:40) 18.4 (00:00) 25.9 10.28 (16:40) 6.11 (17:10) 0 0 0 0 0
09-08-2019 33.4 (19:20) 19.4 (00:00) 26.4 10.28 (19:40) 5.28 (20:30) 0 0 0 0 0
08-08-2019 33.5 (19:40) 16.7 (00:00) 25.1 10 (17:40) 4.72 (17:30) 0 0 0 0 0
07-08-2019 32.9 (15:20) 19.8 (00:00) 26.4 9.72 (16:30) 5.56 (18:40) 0 0 0 0 0
06-08-2019 35.1 (17:10) 19.5 (00:00) 27.3 9.72 (16:20) 4.44 (17:20) 0 0 0 0 0
05-08-2019 36.3 (17:10) 19.4 (00:00) 27.8 6.67 (16:30) 3.33 (22:30) 0 0 0 0 0
04-08-2019 35.9 (17:30) 20.1 (00:00) 28 11.67 (14:50) 3.61 (18:20) 0 0 0 0 0
03-08-2019 36.1 (17:10) 20.1 (00:00) 28.1 8.61 (17:20) 3.89 (19:30) 0 0 0 0 0
02-08-2019 35.6 (17:30) 18.5 (00:00) 27 6.11 (15:10) 1.94 (14:20) 0 0 0 0 0
01-08-2019 34.5 (16:50) 18.1 (00:00) 26.3 13.33 (00:10) 4.17 (02:00) 0 0 0 0 0
31-07-2019 33.8 (16:50) 20.2 (00:00) 27 11.67 (12:50) 4.72 (23:20) 0 0 0 0 0
30-07-2019 32.4 (18:30) 15.3 (00:00) 23.9 5.83 (13:50) 2.5 (09:20) 0 0 0 0 0
29-07-2019 33 (19:00) 17 (00:00) 25 9.17 (18:20) 3.61 (16:50) 0 0 0 0 0
28-07-2019 30.1 (20:00) 14.2 (00:00) 22.2 6.67 (15:40) 2.22 (13:50) 0 0 0 0 0
27-07-2019 27.8 (16:10) 15.7 (00:00) 21.7 12.5 (18:00) 6.94 (16:50) 0 0 0 0 0
26-07-2019 31.3 (16:40) 21.4 (00:00) 26.3 10.56 (17:50) 4.17 (13:00) 0 0 0 0 0
25-07-2019 35.9 (17:20) 22.1 (00:00) 29 9.44 (01:10) 4.44 (20:40) 0 0 0 0 0
24-07-2019 38.5 (17:30) 22.6 (00:00) 30.6 8.89 (17:00) 3.33 (02:00) 0 0 0 0 0
23-07-2019 38.1 (16:50) 22.7 (00:00) 30.4 16.11 (18:50) 6.39 (18:50) 1 0 0 0 1
22-07-2019 36.8 (17:00) 21.9 (00:00) 29.3 13.33 (18:30) 4.44 (21:00) 0 0 0 0 0
21-07-2019 37.6 (16:20) 22.3 (00:00) 29.9 10 (22:50) 3.61 (01:50) 0 0 0 0 0
20-07-2019 37.8 (17:30) 20.9 (07:30) 29.3 10 (23:30) 3.89 (23:00) 0 0 0 0 0
19-07-2019 37.1 (17:30) 20.9 (00:00) 29 9.44 (05:50) 3.06 (20:50) 0 0 0 0 0

Gráficas

Temp. máximas Temp. mínimas Temp. medias Precipitaciones Rachas de viento máximas Velocidades máximas media en intervalos de 10 minutos

Datos horarios

Fecha y hora oficial Temperatura (ºC) Velocidad del viento (km/h) Dirección del viento Racha (km/h) Dirección de racha Precipitación (mm) Presión (hPa) Tendencia (hPa) Humedad (%)
2019-08-17 23:00:00 30 2 Nordeste 18 Noroeste 0 936.8 0 27
2019-08-17 22:00:00 31.3 4 Noroeste 12 Noroeste 0 936.9 0 26
2019-08-17 21:00:00 33.4 6 Sudoeste 17 Oeste 0 936.8 -0.1 25
2019-08-17 20:00:00 34.9 10 Sudoeste 25 Sudoeste 0 936.8 -0.1 23
2019-08-17 19:00:00 35.4 5 Oeste 31 Sudoeste 0 936.9 0 24
2019-08-17 18:00:00 35.6 10 Sudoeste 31 Sudoeste 0 936.9 0.1 24
2019-08-17 17:00:00 35.9 12 Sudoeste 32 Sudoeste 0 936.9 0.1 25
2019-08-17 16:00:00 35.9 12 Sudoeste 28 Oeste 0 936.9 0.1 26
2019-08-17 15:00:00 34.7 4 Oeste 33 Oeste 0 936.8 0 28
2019-08-17 14:00:00 33.6 7 Sudoeste 27 Oeste 0 936.8 0 31
2019-08-17 13:00:00 33.5 6 Sudoeste 17 Sudoeste 0 936.8 0 33
2019-08-17 12:00:00 30.4 8 Sudoeste 19 Sudoeste 0 936.8 0 36
2019-08-17 11:00:00 27.1 5 Sur 15 Sur 0 936.8 0 43
2019-08-17 10:00:00 24.1 5 Sur 13 Sur 0 936.8 0.1 48
2019-08-17 09:00:00 22 3 Sudeste 9 Sudeste 0 936.8 -0.1 55
2019-08-17 08:00:00 21.4 4 Sur 10 Sur 0 936.8 -0.1 56
2019-08-17 07:00:00 21.8 4 Sudeste 13 Sudeste 0 936.7 0 58
2019-08-17 06:00:00 22 4 Sudeste 13 Sudeste 0 936.9 0.1 61
2019-08-17 05:00:00 22 3 Nordeste 5 Nordeste 0 936.9 0.1 53
2019-08-17 04:00:00 23.6 0 Calma 9 Sudeste 0 936.7 -0.2 49
2019-08-17 03:00:00 24.4 4 Sudeste 18 Sur 0 936.8 0 35
2019-08-17 02:00:00 24.4 0 Calma 9 Oeste 0 936.8 0 36
2019-08-17 01:00:00 26.7 2 Nordeste 5 Sudoeste 0 936.9 0.1 33
2019-08-17 00:00:00 28.1 2 Nordeste 9 Noroeste 0 936.8 0 29
2019-08-16 23:00:00 29.7 3 Norte 14 Noroeste 0 936.8 0 27
2019-08-16 22:00:00 30.5 7 Noroeste 18 Oeste 0 936.8 0 26
2019-08-16 21:00:00 33 3 Oeste 19 Norte 0 936.8 -0.1 25
2019-08-16 20:00:00 34.9 0 Calma 21 Noroeste 0 936.8 0 24
2019-08-16 19:00:00 34.9 9 Noroeste 22 Noroeste 0 936.8 -0.1 24
2019-08-16 18:00:00 35 7 Noroeste 24 Sudoeste 0 936.9 0 25
2019-08-16 17:00:00 36.1 3 Sudoeste 26 Sudoeste 0 936.8 0 26
2019-08-16 16:00:00 34.3 4 Oeste 21 Noroeste 0 936.9 0.1 27
2019-08-16 15:00:00 34.1 5 Oeste 19 Oeste 0 936.9 0.1 29
2019-08-16 14:00:00 33.3 5 Oeste 24 Oeste 0 936.8 0 34
2019-08-16 13:00:00 30.7 4 Sur 18 Sur 0 936.8 0 39
2019-08-16 12:00:00 27.8 6 Sur 19 Sudeste 0 936.8 0 45
2019-08-16 11:00:00 25.3 8 Sur 19 Sur 0 936.8 0 55
2019-08-16 10:00:00 22.7 7 Sudeste 22 Sudeste 0 936.8 -0.1 63
2019-08-16 09:00:00 21.1 7 Sudeste 25 Sudeste 0 936.8 0.1 67
2019-08-16 08:00:00 20.7 6 Sudeste 23 Sudeste 0 936.8 0 66
2019-08-16 07:00:00 21 9 Sudeste 33 Sur 0 936.9 0 65
2019-08-16 06:00:00 21.7 8 Sudeste 27 Sudeste 0 936.7 0 63
2019-08-16 05:00:00 22.1 4 Sudeste 18 Sur 0 936.8 0 62
2019-08-16 04:00:00 22.9 4 Este 13 Este 0 936.9 0.1 61
2019-08-16 03:00:00 23.4 4 Sudeste 22 Sudeste 0 936.7 -0.2 61
2019-08-16 02:00:00 24.7 7 Sudeste 23 Sudeste 0 936.8 0.1 51
2019-08-16 01:00:00 25.2 0 Calma 3 Nordeste 0 936.8 -0.1 33
2019-08-16 00:00:00 25.9 0 Calma 3 Nordeste 0 936.9 0.2 30
2019-08-15 23:00:00 27.9 0 Calma 4 Este 0 936.7 -0.1 29
2019-08-15 22:00:00 30.3 0 Calma 6 Norte 0 936.9 0.1 25
2019-08-15 21:00:00 32.5 3 Norte 12 Nordeste 0 936.7 -0.2 23
2019-08-15 20:00:00 34.3 4 Norte 19 Noroeste 0 936.8 -0.1 22
2019-08-15 19:00:00 33.6 4 Oeste 20 Norte 0 936.8 -0.1 22
2019-08-15 18:00:00 34 2 Noroeste 17 Norte 0 936.9 0.1 22
2019-08-15 17:00:00 34.4 6 Norte 18 Sudoeste 0 936.9 0.1 22
2019-08-15 16:00:00 34.8 4 Sudoeste 23 Noroeste 0 936.9 0.1 23
2019-08-15 15:00:00 32.9 5 Norte 17 Norte 0 936.8 0 23
2019-08-15 14:00:00 33.2 4 Sudoeste 13 Noroeste 0 936.8 -0.1 26
2019-08-15 13:00:00 30.4 4 Oeste 11 Oeste 0 936.8 -0.1 33
2019-08-15 12:00:00 27.4 0 Calma 8 Sur 0 936.8 -0.1 44
2019-08-15 11:00:00 24.9 0 Calma 12 Sur 0 936.9 0 54
2019-08-15 10:00:00 22.5 7 Sur 18 Sur 0 936.9 0 60
2019-08-15 09:00:00 19.4 3 Sur 8 Sudeste 0 936.9 0 57
2019-08-15 08:00:00 17.2 0 Calma 4 Sudoeste 0 936.9 0.2 43
2019-08-15 07:00:00 17 0 Calma 4 Oeste 0 936.9 0.1 39
2019-08-15 06:00:00 18.9 3 Nordeste 4 Nordeste 0 936.9 0.1 36
2019-08-15 05:00:00 19.3 0 Calma 5 Sudoeste 0 936.7 -0.1 35
2019-08-15 04:00:00 19.9 3 Sur 14 Sur 0 936.8 0 34
2019-08-15 03:00:00 20.5 3 Nordeste 8 Nordeste 0 936.8 0 32
2019-08-15 02:00:00 22.3 2 Nordeste 4 Nordeste 0 936.8 0 30
2019-08-15 01:00:00 23.3 3 Este 4 Este 0 936.8 -0.1 29
2019-08-15 00:00:00 24.5 0 Calma 4 Este 0 936.8 0 27
2019-08-14 23:00:00 25.8 3 Nordeste 6 Nordeste 0 936.8 0 25
2019-08-14 22:00:00 27.4 3 Nordeste 8 Nordeste 0 936.9 0.1 23
2019-08-14 21:00:00 30.4 2 Nordeste 11 Nordeste 0 936.8 -0.1 21
2019-08-14 20:00:00 33.1 4 Norte 18 Norte 0 936.8 0 20
2019-08-14 19:00:00 32.8 4 Norte 25 Oeste 0 936.8 0 20
2019-08-14 18:00:00 32 3 Noroeste 21 Noroeste 0 936.9 0.1 21
2019-08-14 17:00:00 31.9 7 Noroeste 18 Noroeste 0 936.8 0 22
2019-08-14 16:00:00 31.9 10 Noroeste 23 Sudoeste 0 936.8 0 23
2019-08-14 15:00:00 30.5 4 Noroeste 16 Noroeste 0 936.8 0 25
2019-08-14 14:00:00 29.1 5 Noroeste 17 Sudoeste 0 936.8 -0.1 27
2019-08-14 13:00:00 28.1 5 Sudoeste 13 Oeste 0 936.8 0 33
2019-08-14 12:00:00 25.2 0 Calma 11 Sur 0 936.8 0 47
2019-08-14 11:00:00 22.7 3 Sur 10 Sur 0 936.9 0 66
2019-08-14 10:00:00 20.2 4 Sudeste 15 Sudeste 0 936.8 -0.1 81
2019-08-14 09:00:00 18.6 4 Sudeste 17 Sudeste 0 936.8 -0.1 89
2019-08-14 08:00:00 18.2 2 Sudeste 14 Sur 0 936.9 0 90
2019-08-14 07:00:00 18.4 0 Calma 12 Sur 0 936.9 0.1 88
2019-08-14 06:00:00 18.6 3 Sudeste 11 Sudeste 0 936.9 0.1 87
2019-08-14 05:00:00 19.2 0 Calma 14 Sudeste 0 936.9 0 80
2019-08-14 04:00:00 19.5 6 Sudeste 18 Sudeste 0 936.8 0 75
2019-08-14 03:00:00 19.5 2 Sudeste 18 Nordeste 0 936.8 -0.1 46
2019-08-14 02:00:00 19.4 3 Nordeste 4 Nordeste 0 936.9 0.1 37
2019-08-14 01:00:00 20.7 2 Este 4 Este 0 936.8 0.1 37
2019-08-14 00:00:00 21.2 3 Nordeste 5 Nordeste 0 936.9 0.1 34
2019-08-13 23:00:00 23.7 0 Calma 4 Este 0 936.8 0 33
2019-08-13 22:00:00 25.8 2 Nordeste 8 Este 0 936.7 -0.1 30
2019-08-13 21:00:00 27 5 Nordeste 16 Nordeste 0 936.8 -0.1 29
2019-08-13 20:00:00 28.9 7 Norte 20 Nordeste 0 936.8 0 28
2019-08-13 19:00:00 29.1 6 Norte 25 Noroeste 0 936.8 0 30
2019-08-13 18:00:00 28.8 8 Norte 23 Noroeste 0 936.9 0.1 31
2019-08-13 17:00:00 29 5 Norte 21 Norte 0 936.8 0 33
2019-08-13 16:00:00 29.2 3 Este 23 Noroeste 0 936.8 0 35
2019-08-13 15:00:00 28 5 Norte 20 Norte 0 936.8 0 37
2019-08-13 14:00:00 26.5 6 Noroeste 22 Noroeste 0 936.8 -0.1 42
2019-08-13 13:00:00 25.5 0 Calma 13 Norte 0 936.8 -0.1 51
2019-08-13 12:00:00 24 3 Este 13 Este 0 936.8 -0.1 63
2019-08-13 11:00:00 22.2 4 Sur 18 Sudeste 0 936.9 0 72
2019-08-13 10:00:00 20.3 4 Sudeste 18 Sudeste 0 936.9 0 75
2019-08-13 09:00:00 18.3 3 Nordeste 10 Nordeste 0 936.9 0 68
2019-08-13 08:00:00 16.9 4 Nordeste 9 Norte 0 936.9 0 68
2019-08-13 07:00:00 18.8 2 Este 13 Sudeste 0 936.9 0.1 67
2019-08-13 06:00:00 18.7 4 Este 16 Este 0 936.9 0 57
2019-08-13 05:00:00 19 6 Nordeste 12 Nordeste 0 936.9 0.2 61
2019-08-13 04:00:00 19.1 4 Nordeste 12 Nordeste 0 936.8 -0.1 80
2019-08-13 03:00:00 19.2 4 Nordeste 13 Sur 0 936.9 0.1 76
2019-08-13 02:00:00 18.6 3 Nordeste 12 Este 0 936.7 -0.1 47
2019-08-13 01:00:00 17.6 6 Nordeste 13 Nordeste 0 936.9 0 35
2019-08-13 00:00:00 20.3 2 Nordeste 9 Este 0 936.8 0 33
2019-08-12 23:00:00 21.2 4 Nordeste 15 Nordeste 0 936.8 -0.1 31
2019-08-12 22:00:00 23.3 8 Nordeste 15 Norte 0 936.9 0.2 29
2019-08-12 21:00:00 25.4 6 Nordeste 18 Nordeste 0 936.8 0 27
2019-08-12 20:00:00 27.2 5 Nordeste 21 Norte 0 936.9 0.1 27
2019-08-12 19:00:00 27.5 9 Nordeste 23 Norte 0 936.7 -0.1 27
2019-08-12 18:00:00 27.3 7 Nordeste 23 Norte 0 936.8 0 27
2019-08-12 17:00:00 27.7 6 Norte 22 Norte 0 936.8 0 29
2019-08-12 16:00:00 27.4 5 Norte 22 Norte 0 936.8 0 31
2019-08-12 15:00:00 25.6 8 Nordeste 27 Norte 0 936.8 0 34
2019-08-12 14:00:00 24.5 6 Nordeste 23 Norte 0 936.8 0.2 35
2019-08-12 13:00:00 24.1 10 Nordeste 28 Norte 0 936.8 -0.1 39
2019-08-12 12:00:00 22.6 12 Nordeste 31 Nordeste 0 936.8 -0.2 43
2019-08-12 11:00:00 21.3 12 Nordeste 25 Nordeste 0 936.6 -0.3 47
2019-08-12 10:00:00 19 10 Nordeste 25 Nordeste 0 936.9 0 52
2019-08-12 09:00:00 15.4 6 Nordeste 13 Norte 0 937 0.1 52
2019-08-12 08:00:00 13.6 5 Nordeste 9 Norte 0 936.9 0.1 51
2019-08-12 07:00:00 14.7 3 Norte 12 Norte 0 936.9 0 46
2019-08-12 06:00:00 15.5 5 Norte 14 Norte 0 936.9 0 44
2019-08-12 05:00:00 16 6 Norte 13 Norte 0 936.8 0 41
2019-08-12 04:00:00 17.1 3 Norte 13 Norte 0 936.9 0.1 40
2019-08-12 03:00:00 18.1 4 Norte 14 Noroeste 0 936.9 0 38
2019-08-12 02:00:00 18.7 7 Noroeste 14 Noroeste 0 936.8 0 36
2019-08-12 01:00:00 19.7 7 Noroeste 15 Noroeste 0 936.8 0 34
2019-08-12 00:00:00 21.1 5 Norte 19 Noroeste 0 936.9 0.1 34
2019-08-11 23:00:00 22.2 5 Norte 14 Noroeste 0 936.8 0 34
2019-08-11 22:00:00 23.9 6 Norte 22 Noroeste 0 936.8 0 32
2019-08-11 21:00:00 25.9 10 Noroeste 24 Noroeste 0 936.8 0 27
2019-08-11 20:00:00 28.2 6 Norte 35 Noroeste 0 936.8 0 23
2019-08-11 19:00:00 28.7 14 Noroeste 30 Noroeste 0 936.8 0 26
2019-08-11 18:00:00 29.8 4 Oeste 32 Noroeste 0 936.8 0 26
2019-08-11 17:00:00 30.3 6 Oeste 30 Oeste 0 936.8 0 26
2019-08-11 16:00:00 30.5 12 Oeste 31 Sudoeste 0 936.8 0 28
2019-08-11 15:00:00 29.6 10 Noroeste 34 Noroeste 0 936.8 0 32
2019-08-11 14:00:00 28.4 6 Sudoeste 25 Noroeste 0 936.8 0 34
2019-08-11 13:00:00 26.6 9 Oeste 25 Oeste 0 936.8 -0.1 37
2019-08-11 12:00:00 25.3 7 Oeste 17 Sudoeste 0 936.8 -0.1 41
2019-08-11 11:00:00 23 5 Sudoeste 12 Sudoeste 0 936.8 0 45
2019-08-11 10:00:00 20.9 4 Sur 9 Sudoeste 0 936.9 0 47
2019-08-11 09:00:00 18.9 4 Sur 8 Sur 0 936.9 0.1 48
2019-08-11 08:00:00 18.1 0 Calma 5 Noroeste 0 936.8 -0.1 46
2019-08-11 07:00:00 18.4 0 Calma 3 Sudoeste 0 936.9 0.1 45
2019-08-11 06:00:00 18.4 0 Calma 4 Sudoeste 0 936.8 -0.1 46
2019-08-11 05:00:00 19.4 0 Calma 3 Oeste 0 936.9 0.1 44
2019-08-11 04:00:00 20.4 0 Calma 4 Oeste 0 936.8 0 41
2019-08-11 03:00:00 21.6 0 Calma 4 Nordeste 0 936.9 0.1 39
2019-08-11 02:00:00 22.9 2 Nordeste 7 Norte 0 936.8 0 38
2019-08-11 01:00:00 23.9 3 Norte 10 Norte 0 936.8 0 37
2019-08-11 00:00:00 25.4 4 Norte 15 Norte 0 936.8 0 36
2019-08-10 23:00:00 27.1 5 Norte 14 Noroeste 0 936.8 0.1 36
2019-08-10 22:00:00 28.8 9 Noroeste 17 Noroeste 0 936.8 0 33
2019-08-10 21:00:00 31.1 4 Norte 21 Oeste 0 936.8 0 34
2019-08-10 20:00:00 32.8 12 Sudoeste 32 Oeste 0 936.7 -0.1 34
2019-08-10 19:00:00 33.2 12 Oeste 29 Sudoeste 0 936.8 0.1 35
2019-08-10 18:00:00 32.6 13 Sudoeste 35 Oeste 0 936.8 0.2 35
2019-08-10 17:00:00 32.2 13 Oeste 37 Sudoeste 0 936.8 0 36
2019-08-10 16:00:00 32.1 14 Sudoeste 35 Oeste 0 936.7 -0.1 37
2019-08-10 15:00:00 30.4 12 Sudoeste 26 Sudoeste 0 936.6 -0.1 45
2019-08-10 14:00:00 28.4 4 Oeste 19 Sudoeste 0 936.8 -0.1 49
2019-08-10 13:00:00 26.7 3 Oeste 16 Sudoeste 0 936.8 0 54
2019-08-10 12:00:00 25.6 4 Sur 12 Sur 0 936.7 -0.1 61
2019-08-10 11:00:00 23.2 3 Sudoeste 12 Noroeste 0 936.9 0.1 67
2019-08-10 10:00:00 21.5 4 Norte 11 Nordeste 0 936.8 0 69
2019-08-10 09:00:00 19.6 3 Norte 11 Norte 0 936.8 -0.1 77
2019-08-10 08:00:00 18.9 0 Calma 5 Nordeste 0 936.8 0 84
2019-08-10 07:00:00 18.6 2 Nordeste 6 Nordeste 0 936.8 0 84
2019-08-10 06:00:00 19.3 2 Nordeste 8 Norte 0 936.9 0.1 83
2019-08-10 05:00:00 19.7 4 Nordeste 10 Nordeste 0 936.8 0 82
2019-08-10 04:00:00 20.5 5 Nordeste 11 Norte 0 936.8 0 80
2019-08-10 03:00:00 21.1 3 Nordeste 7 Norte 0 936.8 0 77
2019-08-10 02:00:00 21.5 4 Nordeste 10 Norte 0 936.8 0 75
2019-08-10 01:00:00 22.5 6 Nordeste 14 Norte 0 936.8 0 72
2019-08-10 00:00:00 23.4 6 Nordeste 26 Norte 0 936.8 0 70
2019-08-09 23:00:00 24.6 10 Norte 26 Norte 0 936.8 0 67
2019-08-09 22:00:00 27 7 Norte 27 Noroeste 0 936.8 0 58
2019-08-09 21:00:00 29.2 13 Noroeste 35 Noroeste 0 936.8 -0.1 45
2019-08-09 20:00:00 32.1 8 Noroeste 37 Noroeste 0 936.8 0 40
2019-08-09 19:00:00 33.2 9 Noroeste 32 Noroeste 0 936.8 -0.1 39
2019-08-09 18:00:00 32.6 7 Oeste 35 Noroeste 0 936.9 0.1 40
2019-08-09 17:00:00 32.6 9 Noroeste 32 Sudoeste 0 936.8 -0.1 38
2019-08-09 16:00:00 32.4 5 Oeste 35 Sudoeste 0 936.9 0.1 40
2019-08-09 15:00:00 32.6 14 Sudoeste 35 Oeste 0 936.8 0 42
2019-08-09 14:00:00 30.5 9 Oeste 33 Sudoeste 0 936.9 0.1 44
2019-08-09 13:00:00 28.8 6 Oeste 27 Sudoeste 0 936.8 0 48
2019-08-09 12:00:00 27.1 9 Oeste 26 Sudoeste 0 936.8 0 53
2019-08-09 11:00:00 25.4 3 Sudoeste 14 Sudoeste 0 936.8 -0.1 55
2019-08-09 10:00:00 23.6 6 Sudoeste 12 Sudoeste 0 936.8 -0.1 56
2019-08-09 09:00:00 20.9 5 Sur 9 Sur 0 936.8 -0.1 54
2019-08-09 08:00:00 19.8 0 Calma 9 Sur 0 936.9 0 53
2019-08-09 07:00:00 20 3 Sur 6 Sur 0 936.9 0 57
2019-08-09 06:00:00 21.6 0 Calma 3 Nordeste 0 936.9 0.1 55
2019-08-09 05:00:00 22.4 2 Nordeste 7 Norte 0 936.9 0.1 50
2019-08-09 04:00:00 23 4 Norte 9 Norte 0 936.9 0 49
2019-08-09 03:00:00 23 0 Calma 4 Sudoeste 0 936.8 0 45
2019-08-09 02:00:00 23.9 3 Sudoeste 9 Sudoeste 0 936.8 -0.1 44
2019-08-09 01:00:00 25.6 0 Calma 3 Norte 0 936.9 0.1 43
2019-08-09 00:00:00 27.1 2 Norte 8 Noroeste 0 936.8 0 39
2019-08-08 23:00:00 28.4 3 Norte 13 Noroeste 0 936.9 0 37
2019-08-08 22:00:00 29.9 5 Noroeste 14 Noroeste 0 936.8 0 35
2019-08-08 21:00:00 32.5 6 Noroeste 19 Sudoeste 0 936.8 -0.1 34
2019-08-08 20:00:00 33.2 14 Sudoeste 29 Oeste 0 936.9 0 34
2019-08-08 19:00:00 33 10 Sudoeste 33 Sudoeste 0 936.8 0 35
2019-08-08 18:00:00 32.9 12 Oeste 36 Oeste 0 936.9 0 36
2019-08-08 17:00:00 32.3 13 Sudoeste 31 Oeste 0 936.9 0.1 37
2019-08-08 16:00:00 32.1 5 Oeste 29 Sudoeste 0 936.8 0 39
2019-08-08 15:00:00 30.8 6 Sudoeste 24 Sudoeste 0 936.9 0.1 42
2019-08-08 14:00:00 29.7 3 Sudoeste 20 Sudoeste 0 936.8 0 46
2019-08-08 13:00:00 28.2 5 Sur 17 Sur 0 936.8 0 48
2019-08-08 12:00:00 25.8 3 Sudoeste 15 Oeste 0 936.8 0 54
2019-08-08 11:00:00 23.4 0 Calma 9 Noroeste 0 936.8 -0.1 61
2019-08-08 10:00:00 21.6 0 Calma 6 Sur 0 936.8 -0.1 65
2019-08-08 09:00:00 19.4 3 Sur 7 Sudeste 0 936.8 -0.1 68
2019-08-08 08:00:00 17.3 0 Calma 5 Sudoeste 0 936.9 0 66
2019-08-08 07:00:00 18.6 0 Calma 5 Este 0 936.9 0 65
2019-08-08 06:00:00 18.8 0 Calma 3 Norte 0 936.9 0 63
2019-08-08 05:00:00 19 0 Calma 6 Nordeste 0 936.9 0.1 61
2019-08-08 04:00:00 19.7 0 Calma 6 Nordeste 0 936.9 0 59
2019-08-08 03:00:00 20.8 0 Calma 5 Nordeste 0 936.9 0 57
2019-08-08 02:00:00 21.5 0 Calma 4 Noroeste 0 936.8 -0.1 56
2019-08-08 01:00:00 22 0 Calma 6 Norte 0 936.9 0 53
2019-08-08 00:00:00 23.7 3 Norte 10 Norte 0 936.9 0.1 49
2019-08-07 23:00:00 24.6 3 Norte 13 Norte 0 936.9 0.1 48
2019-08-07 22:00:00 25 8 Norte 17 Norte 0 936.9 0.1 47
2019-08-07 21:00:00 25.8 4 Norte 23 Norte 0 936.8 0 45
2019-08-07 20:00:00 26.5 6 Norte 24 Norte 0 936.8 0 42
2019-08-07 19:00:00 27.4 9 Norte 33 Noroeste 0 936.8 -0.1 39
2019-08-07 18:00:00 28.5 8 Norte 28 Noroeste 0 936.8 -0.1 39
2019-08-07 17:00:00 28.7 9 Norte 35 Nordeste 0 936.8 0.2 38
2019-08-07 16:00:00 30.5 10 Norte 28 Noroeste 0 936.9 0 35
2019-08-07 15:00:00 31.4 4 Oeste 27 Noroeste 0 936.9 0 34
2019-08-07 14:00:00 30.3 8 Noroeste 30 Sudoeste 0 936.6 -0.3 35
2019-08-07 13:00:00 29.1 9 Sudoeste 28 Sudoeste 0 936.9 0 39
2019-08-07 12:00:00 27.7 10 Oeste 23 Sudoeste 0 936.9 0 42
2019-08-07 11:00:00 26.5 12 Oeste 23 Sudoeste 0 936.9 0 45
2019-08-07 10:00:00 23.9 10 Oeste 20 Oeste 0 936.9 0 49
2019-08-07 09:00:00 20.6 5 Sudoeste 14 Sur 0 936.9 0 48
2019-08-07 08:00:00 20 6 Sudoeste 10 Sudoeste 0 936.9 0 42
2019-08-07 07:00:00 20.3 0 Calma 9 Sudeste 0 936.9 0 37
2019-08-07 06:00:00 20.6 0 Calma 6 Este 0 936.9 0 35
2019-08-07 05:00:00 21.6 2 Sur 6 Sudoeste 0 936.9 0 34
2019-08-07 04:00:00 21.5 0 Calma 5 Sur 0 936.9 0.1 33
2019-08-07 03:00:00 22.2 0 Calma 5 Sur 0 936.9 0 32
2019-08-07 02:00:00 22.6 0 Calma 7 Sudoeste 0 936.9 0.2 30
2019-08-07 01:00:00 24 0 Calma 3 Noroeste 0 936.8 0 29
2019-08-07 00:00:00 25.7 0 Calma 9 Norte 0 936.9 0.1 27
2019-08-06 23:00:00 27.2 3 Norte 12 Noroeste 0 936.7 -0.1 25
2019-08-06 22:00:00 29.4 8 Noroeste 16 Noroeste 0 936.8 -0.1 23
2019-08-06 21:00:00 32.5 9 Noroeste 15 Noroeste 0 936.8 -0.1 21
2019-08-06 20:00:00 33.6 7 Oeste 27 Oeste 0 936.8 -0.1 19
2019-08-06 19:00:00 34.3 14 Sudoeste 29 Sudoeste 0 936.9 0 19
2019-08-06 18:00:00 34.5 9 Sudoeste 34 Sudoeste 0 936.9 0 21
2019-08-06 17:00:00 34.4 12 Sudoeste 35 Sudoeste 0 936.9 0 22
2019-08-06 16:00:00 34 13 Oeste 30 Oeste 0 936.9 0.1 24
2019-08-06 15:00:00 33.9 12 Sudoeste 34 Oeste 0 936.9 0.1 25
2019-08-06 14:00:00 33.2 8 Sudoeste 27 Sudoeste 0 936.9 0 28
2019-08-06 13:00:00 31.3 11 Sudoeste 23 Oeste 0 936.8 -0.1 29
2019-08-06 12:00:00 29.2 6 Sudoeste 15 Oeste 0 936.8 -0.1 32
2019-08-06 11:00:00 25.7 3 Sudoeste 9 Sudoeste 0 936.9 0 36
2019-08-06 10:00:00 22.5 4 Sur 8 Sudoeste 0 936.9 0 39
2019-08-06 09:00:00 20.5 4 Sur 10 Sur 0 936.9 0 40
2019-08-06 08:00:00 19.7 0 Calma 8 Sur 0 936.9 0.1 40
2019-08-06 07:00:00 20.1 0 Calma 9 Sur 0 936.9 0 38
2019-08-06 06:00:00 21 4 Sur 8 Sudeste 0 936.9 0 37
2019-08-06 05:00:00 21.1 3 Sudeste 6 Sudeste 0 936.8 0 37
2019-08-06 04:00:00 22.1 3 Sur 14 Sudoeste 0 936.9 0 37
2019-08-06 03:00:00 23.9 0 Calma 4 Nordeste 0 936.9 0.1 34
2019-08-06 02:00:00 25 2 Nordeste 6 Nordeste 0 936.8 -0.1 33
2019-08-06 01:00:00 26 0 Calma 5 Norte 0 936.9 0 32
2019-08-06 00:00:00 27.1 0 Calma 12 Norte 0 936.8 0 29
2019-08-05 23:00:00 28.9 6 Noroeste 18 Noroeste 0 936.9 0 26
2019-08-05 22:00:00 30.9 8 Noroeste 11 Oeste 0 936.9 0 24
2019-08-05 21:00:00 33.1 5 Oeste 16 Sudoeste 0 936.8 -0.1 23
2019-08-05 20:00:00 34.8 4 Sur 22 Sudoeste 0 936.9 0 23
2019-08-05 19:00:00 34.9 5 Oeste 22 Sudoeste 0 936.9 0 23
2019-08-05 18:00:00 34.6 10 Sudoeste 23 Oeste 0 936.9 0 23
2019-08-05 17:00:00 35.9 8 Sur 24 Noroeste 0 936.9 0 24
2019-08-05 16:00:00 34.4 2 Noroeste 21 Sudoeste 0 936.9 0 26
2019-08-05 15:00:00 33.6 4 Sur 17 Oeste 0 936.9 0 29
2019-08-05 14:00:00 32.9 3 Oeste 15 Sudoeste 0 936.9 0.1 33
2019-08-05 13:00:00 30.9 3 Oeste 13 Sudoeste 0 936.9 0.1 37
2019-08-05 12:00:00 28.6 3 Noroeste 14 Noroeste 0 936.9 0 42
2019-08-05 11:00:00 26.5 3 Noroeste 9 Noroeste 0 936.8 -0.1 49
2019-08-05 10:00:00 24 4 Sur 10 Sudoeste 0 936.8 -0.1 61
2019-08-05 09:00:00 22 3 Sudeste 9 Sur 0 936.9 0.1 68
2019-08-05 08:00:00 20.6 0 Calma 9 Sudeste 0 936.9 0 67
2019-08-05 07:00:00 20.4 0 Calma 5 Sur 0 936.9 0.1 56
2019-08-05 06:00:00 21.2 0 Calma 5 Sur 0 936.8 -0.1 41
2019-08-05 05:00:00 21.6 0 Calma 9 Sudeste 0 936.9 0.1 34
2019-08-05 04:00:00 22.2 4 Sur 10 Sur 0 936.8 -0.1 33
2019-08-05 03:00:00 23.2 0 Calma 5 Nordeste 0 936.9 0.1 31
2019-08-05 02:00:00 24.6 2 Nordeste 6 Norte 0 936.8 -0.1 30
2019-08-05 01:00:00 25.5 0 Calma 6 Este 0 936.9 0.1 29
2019-08-05 00:00:00 27 2 Nordeste 9 Norte 0 936.8 0 27
2019-08-04 23:00:00 28.2 4 Norte 10 Norte 0 936.9 0.1 26
2019-08-04 22:00:00 30.7 5 Noroeste 9 Norte 0 936.8 0 25
2019-08-04 21:00:00 33.1 4 Noroeste 13 Noroeste 0 936.8 -0.1 24
2019-08-04 20:00:00 34.4 5 Noroeste 24 Sudoeste 0 936.8 -0.1 24
2019-08-04 19:00:00 34.5 9 Sudoeste 23 Sudoeste 0 936.8 0 26
2019-08-04 18:00:00 34.3 4 Oeste 24 Oeste 0 936.9 0.1 26
2019-08-04 17:00:00 34.8 12 Sudoeste 27 Sudoeste 0 936.9 0 26
2019-08-04 16:00:00 34.7 10 Sudoeste 29 Oeste 0 936.8 -0.1 27
2019-08-04 15:00:00 33.5 10 Oeste 42 Noroeste 0 936.8 0 28
2019-08-04 14:00:00 33.2 5 Noroeste 25 Noroeste 0 936.9 0.1 28
2019-08-04 13:00:00 31.3 2 Noroeste 18 Oeste 0 936.9 0 30
2019-08-04 12:00:00 29.2 4 Noroeste 13 Noroeste 0 936.8 0 35
2019-08-04 11:00:00 26.8 4 Sudoeste 9 Sudoeste 0 936.8 0 41
2019-08-04 10:00:00 23.1 3 Sur 10 Sur 0 936.9 0 49
2019-08-04 09:00:00 21.5 5 Sur 14 Sur 0 936.8 -0.1 54
2019-08-04 08:00:00 20.6 4 Sudeste 13 Sudeste 0 936.8 -0.1 66
2019-08-04 07:00:00 20.3 0 Calma 8 Sudeste 0 936.9 0 67
2019-08-04 06:00:00 21.7 2 Sudeste 12 Sudeste 0 936.9 0 65
2019-08-04 05:00:00 21.7 0 Calma 6 Sur 0 936.9 0.1 47
2019-08-04 04:00:00 21.6 3 Sur 5 Sur 0 936.9 0 33
2019-08-04 03:00:00 22.6 0 Calma 5 Sudoeste 0 936.9 0 32
2019-08-04 02:00:00 23.2 0 Calma 5 Nordeste 0 936.8 0 30
2019-08-04 01:00:00 25.5 3 Nordeste 6 Nordeste 0 936.9 0 27
2019-08-04 00:00:00 27.3 3 Nordeste 8 Norte 0 936.9 0 26
2019-08-03 23:00:00 28.5 3 Norte 9 Noroeste 0 936.8 0 24
2019-08-03 22:00:00 31 6 Noroeste 12 Sudoeste 0 936.9 0 24
2019-08-03 21:00:00 32.9 5 Sudoeste 21 Oeste 0 936.9 0 23
2019-08-03 20:00:00 34.5 7 Sudoeste 27 Oeste 0 936.8 0 23
2019-08-03 19:00:00 34.9 9 Sudoeste 28 Sudoeste 0 936.9 0 23
2019-08-03 18:00:00 34.7 11 Sudoeste 31 Oeste 0 936.9 0 23
2019-08-03 17:00:00 36 0 Calma 28 Sudoeste 0 936.8 0 24
2019-08-03 16:00:00 35.4 5 Sudoeste 16 Sudoeste 0 936.9 0 25
2019-08-03 15:00:00 33.5 3 Sur 15 Sudoeste 0 936.9 0.1 26
2019-08-03 14:00:00 33.1 0 Calma 13 Sudoeste 0 936.8 0 28
2019-08-03 13:00:00 31 6 Sudoeste 14 Sudoeste 0 936.9 0 34
2019-08-03 12:00:00 28.6 4 Sudoeste 14 Sudoeste 0 936.8 -0.1 42
2019-08-03 11:00:00 26.4 4 Sur 15 Sur 0 936.8 0 51
2019-08-03 10:00:00 23.1 6 Sur 19 Sur 0 936.9 0 60
2019-08-03 09:00:00 21.1 6 Sudeste 22 Sudeste 0 936.9 0 67
2019-08-03 08:00:00 20.3 6 Sudeste 18 Sudeste 0 936.8 -0.1 68
2019-08-03 07:00:00 20.6 7 Sudeste 19 Sur 0 936.9 0 68
2019-08-03 06:00:00 21.4 7 Sudeste 27 Sur 0 936.9 0.1 65
2019-08-03 05:00:00 22.3 5 Sudeste 21 Sudeste 0 936.9 0 61
2019-08-03 04:00:00 23.3 6 Sudeste 25 Sur 0 936.9 0.1 60
2019-08-03 03:00:00 24.2 8 Sudeste 23 Sur 0 936.8 0 57
2019-08-03 02:00:00 26 4 Sudeste 14 Sur 0 936.9 0.1 50
2019-08-03 01:00:00 26.7 5 Sur 15 Sudeste 0 936.8 -0.1 37
2019-08-03 00:00:00 26.9 4 Norte 10 Norte 0 936.8 0 29
2019-08-02 23:00:00 28.4 0 Calma 6 Nordeste 0 936.8 0 28
2019-08-02 22:00:00 30.5 0 Calma 8 Sur 0 936.9 0 26
2019-08-02 21:00:00 32.8 4 Sur 16 Sudoeste 0 936.8 -0.1 23
2019-08-02 20:00:00 34.3 7 Sudoeste 17 Oeste 0 936.8 0 23
2019-08-02 19:00:00 34.9 2 Sudoeste 14 Oeste 0 936.9 0 22
2019-08-02 18:00:00 34.3 4 Noroeste 20 Norte 0 936.9 0.1 23
2019-08-02 17:00:00 34.9 5 Sudoeste 15 Oeste 0 936.8 0 23
2019-08-02 16:00:00 34.1 5 Sudoeste 22 Oeste 0 936.9 0.1 25
2019-08-02 15:00:00 32.9 0 Calma 16 Sudoeste 0 936.8 0 27
2019-08-02 14:00:00 31.8 4 Sudoeste 15 Oeste 0 936.8 0 29
2019-08-02 13:00:00 30.5 4 Sudoeste 12 Oeste 0 936.8 -0.1 33
2019-08-02 12:00:00 27.9 3 Oeste 11 Sudoeste 0 936.8 -0.1 37
2019-08-02 11:00:00 25.1 3 Oeste 10 Sur 0 936.8 0 44
2019-08-02 10:00:00 22.7 4 Sur 10 Sur 0 936.9 0 55
2019-08-02 09:00:00 20.4 3 Sur 13 Sur 0 936.9 0.1 47
2019-08-02 08:00:00 19 4 Sudeste 9 Sudeste 0 936.8 0 42
2019-08-02 07:00:00 19 0 Calma 7 Sur 0 936.9 0 41
2019-08-02 06:00:00 18.6 0 Calma 5 Sur 0 936.8 0.2 37
2019-08-02 05:00:00 20 0 Calma 6 Sur 0 936.8 0 36
2019-08-02 04:00:00 20 0 Calma 4 Sudoeste 0 936.9 0.1 35
2019-08-02 03:00:00 21.9 0 Calma 4 Este 0 936.6 -0.2 33
2019-08-02 02:00:00 23.2 0 Calma 5 Este 0 936.8 0 30
2019-08-02 01:00:00 24.5 0 Calma 8 Norte 0 936.8 0 28
2019-08-02 00:00:00 26.1 3 Norte 8 Noroeste 0 936.8 0 27
2019-08-01 23:00:00 27.1 4 Norte 13 Noroeste 0 936.8 0 27
2019-08-01 22:00:00 29 8 Noroeste 17 Norte 0 936.8 -0.1 26
2019-08-01 21:00:00 31.6 4 Noroeste 20 Noroeste 0 936.8 0.1 23
2019-08-01 20:00:00 33.1 7 Noroeste 21 Noroeste 0 936.8 0 22
2019-08-01 19:00:00 33.6 5 Oeste 26 Noroeste 0 936.9 0.1 23
2019-08-01 18:00:00 33.9 2 Oeste 25 Oeste 0 936.7 -0.1 23
2019-08-01 17:00:00 34 6 Oeste 32 Sudoeste 0 936.8 0 26
2019-08-01 16:00:00 32.9 5 Oeste 20 Oeste 0 936.8 0 27
2019-08-01 15:00:00 32.3 5 Oeste 22 Noroeste 0 936.8 0 29
2019-08-01 14:00:00 31.1 5 Oeste 18 Oeste 0 936.8 0.1 31
2019-08-01 13:00:00 28.7 5 Sudoeste 15 Sudoeste 0 936.8 0 40
2019-08-01 12:00:00 26.6 6 Sur 19 Sur 0 936.8 -0.1 53
2019-08-01 11:00:00 24.5 9 Sur 21 Sur 0 936.7 -0.2 63
2019-08-01 10:00:00 21.8 8 Sur 23 Sur 0 936.8 -0.1 76
2019-08-01 09:00:00 19.4 7 Sudeste 26 Sur 0 936.9 0.1 84
2019-08-01 08:00:00 18.1 9 Sudeste 30 Sur 0 936.9 0.1 87
2019-08-01 07:00:00 18.2 10 Sudeste 32 Sur 0 936.9 0 84
2019-08-01 06:00:00 18.9 13 Sudeste 39 Sudeste 0 936.8 0 79
2019-08-01 05:00:00 19.4 9 Sudeste 33 Sudeste 0 936.8 0 78
2019-08-01 04:00:00 19.9 10 Sudeste 37 Sudeste 0 936.9 0.1 77
2019-08-01 03:00:00 20.4 12 Sudeste 38 Sur 0 936.8 0 75
2019-08-01 02:00:00 21 15 Sudeste 42 Sudeste 0 936.8 0 72
2019-08-01 01:00:00 21.6 13 Sudeste 48 Sudeste 0 936.8 0 71
2019-08-01 00:00:00 22.5 15 Sudeste 41 Sudeste 0 936.8 0.2 68
2019-07-31 23:00:00 23.9 13 Sudeste 41 Sudeste 0 936.8 0.1 64
2019-07-31 22:00:00 25.4 11 Sudeste 36 Sudeste 0 936.8 0 60
2019-07-31 21:00:00 27.7 12 Sudeste 38 Sudeste 0 936.6 -0.2 51
2019-07-31 20:00:00 30.2 12 Sudeste 34 Sudeste 0 936.7 -0.1 40
2019-07-31 19:00:00 31.3 11 Sur 32 Sur 0 936.8 -0.1 38
2019-07-31 18:00:00 32.2 10 Sur 28 Sur 0 936.8 0 37
2019-07-31 17:00:00 33.3 7 Sudeste 28 Sur 0 936.8 0 35
2019-07-31 16:00:00 32.6 9 Sudeste 28 Sudeste 0 936.9 0 36
2019-07-31 15:00:00 31.3 9 Sur 36 Sudeste 0 936.8 0 39
2019-07-31 14:00:00 29.6 13 Sur 41 Sudeste 0 936.8 0 45
2019-07-31 13:00:00 28.1 15 Sur 42 Sur 0 936.9 0.1 49
2019-07-31 12:00:00 26.5 13 Sudeste 39 Sur 0 936.8 0 54
2019-07-31 11:00:00 24.1 11 Sudeste 37 Sudeste 0 936.8 -0.1 67
2019-07-31 10:00:00 21.8 15 Sudeste 38 Sur 0 936.8 0 74
2019-07-31 09:00:00 21 9 Sudeste 30 Sudeste 0 936.8 0 76
2019-07-31 08:00:00 20.5 10 Sudeste 36 Sur 0 936.9 0.1 80
2019-07-31 07:00:00 20.3 10 Sudeste 40 Sudeste 0 936.8 0 83
2019-07-31 06:00:00 20.5 13 Sudeste 41 Sudeste 0 936.8 -0.1 82
2019-07-31 05:00:00 20.7 9 Sudeste 39 Sur 0 936.8 -0.1 73
2019-07-31 04:00:00 21.4 6 Sudeste 34 Sudeste 0 936.8 0 66
2019-07-31 03:00:00 22.1 8 Sudeste 31 Sudeste 0 936.9 0.1 64
2019-07-31 02:00:00 22.5 6 Sudeste 36 Sudeste 0 936.9 0 65
2019-07-31 01:00:00 24.4 3 Sudeste 24 Sur 0 936.8 -0.1 64
2019-07-31 00:00:00 25.3 0 Calma 13 Este 0 936.8 -0.1 34
2019-07-30 23:00:00 25.6 5 Nordeste 12 Nordeste 0 936.9 0.1 30
2019-07-30 22:00:00 26.6 5 Nordeste 10 Nordeste 0 936.9 0 30
2019-07-30 21:00:00 29.5 5 Nordeste 14 Nordeste 0 936.9 0 28
2019-07-30 20:00:00 30.9 5 Nordeste 15 Nordeste 0 936.8 -0.1 27
2019-07-30 19:00:00 31.4 6 Norte 20 Oeste 0 936.9 0 28
2019-07-30 18:00:00 31.3 8 Norte 18 Noroeste 0 936.9 0.1 30
2019-07-30 17:00:00 32.2 2 Sur 19 Sudoeste 0 936.9 0.1 31
2019-07-30 16:00:00 29.9 5 Noroeste 19 Noroeste 0 936.9 0.1 32
2019-07-30 15:00:00 29.7 3 Norte 21 Noroeste 0 936.8 -0.1 34
2019-07-30 14:00:00 28.1 3 Noroeste 21 Noroeste 0 936.8 -0.1 37
2019-07-30 13:00:00 26.5 3 Norte 15 Noroeste 0 936.8 0 39
2019-07-30 12:00:00 25.5 2 Norte 13 Nordeste 0 936.9 0.1 41
2019-07-30 11:00:00 23.1 6 Nordeste 19 Norte 0 936.9 0.1 43
2019-07-30 10:00:00 21.1 9 Nordeste 17 Nordeste 0 936.8 0.1 45
2019-07-30 09:00:00 17.6 7 Norte 13 Norte 0 936.8 -0.1 49
2019-07-30 08:00:00 15.7 3 Nordeste 9 Norte 0 936.8 -0.1 49
2019-07-30 07:00:00 15.8 4 Nordeste 9 Nordeste 0 936.7 -0.1 47
2019-07-30 06:00:00 17.1 2 Nordeste 5 Nordeste 0 936.9 0 45
2019-07-30 05:00:00 17.9 0 Calma 6 Nordeste 0 936.9 0.1 44
2019-07-30 04:00:00 18.6 3 Nordeste 10 Nordeste 0 936.8 -0.1 42
2019-07-30 03:00:00 19.7 0 Calma 7 Noroeste 0 936.9 0.1 41
2019-07-30 02:00:00 21.1 2 Norte 10 Noroeste 0 936.8 -0.1 38
2019-07-30 01:00:00 22.9 2 Norte 12 Noroeste 0 936.9 0.1 36
2019-07-30 00:00:00 24.1 4 Norte 10 Noroeste 0 936.8 0 35
2019-07-29 23:00:00 25.9 5 Norte 14 Noroeste 0 936.9 0.1 34
2019-07-29 22:00:00 27.1 9 Noroeste 17 Norte 0 936.8 -0.1 28
2019-07-29 21:00:00 29.8 5 Norte 26 Noroeste 0 936.8 -0.1 26
2019-07-29 20:00:00 31.6 4 Noroeste 30 Oeste 0 936.8 0 26
2019-07-29 19:00:00 32.9 7 Noroeste 33 Noroeste 0 936.9 0 26
2019-07-29 18:00:00 32.4 9 Oeste 28 Oeste 0 936.9 0.1 28
2019-07-29 17:00:00 32.4 7 Noroeste 31 Oeste 0 936.8 0 31
2019-07-29 16:00:00 32.2 10 Noroeste 28 Oeste 0 936.9 0.1 34
2019-07-29 15:00:00 31 8 Sudoeste 26 Oeste 0 936.8 0 39
2019-07-29 14:00:00 29.7 7 Sudoeste 30 Oeste 0 936.8 0 41
2019-07-29 13:00:00 28.1 3 Sudoeste 22 Oeste 0 936.8 -0.1 44
2019-07-29 12:00:00 26.5 6 Sur 14 Sudoeste 0 936.8 -0.1 46
2019-07-29 11:00:00 24 4 Sur 11 Sur 0 936.8 -0.1 49
2019-07-29 10:00:00 21.5 4 Sur 10 Sur 0 936.9 0.1 52
2019-07-29 09:00:00 19.6 6 Sur 11 Sur 0 936.9 0.1 54
2019-07-29 08:00:00 17.5 2 Sur 6 Sur 0 936.9 0.1 53
2019-07-29 07:00:00 17.3 2 Noroeste 5 Noroeste 0 936.8 0 51
2019-07-29 06:00:00 18 0 Calma 5 Este 0 936.8 0 49
2019-07-29 05:00:00 18.9 3 Nordeste 8 Este 0 936.8 -0.1 48
2019-07-29 04:00:00 18.6 4 Nordeste 14 Nordeste 0 936.8 0 48
2019-07-29 03:00:00 19.9 2 Noroeste 7 Noroeste 0 936.8 0.1 46
2019-07-29 02:00:00 20.6 0 Calma 6 Noroeste 0 936.9 0.1 46
2019-07-29 01:00:00 22.3 0 Calma 6 Este 0 936.8 0 44
2019-07-29 00:00:00 23 0 Calma 9 Nordeste 0 936.7 -0.1 42
2019-07-28 23:00:00 25 0 Calma 3 Sudoeste 0 936.8 0 42
2019-07-28 22:00:00 26.3 0 Calma 4 Oeste 0 936.8 -0.1 40
2019-07-28 21:00:00 27.9 2 Sudoeste 14 Sur 0 936.8 0 37
2019-07-28 20:00:00 30 0 Calma 15 Noroeste 0 936.8 0 36
2019-07-28 19:00:00 29 4 Sudoeste 18 Norte 0 936.9 0.1 37
2019-07-28 18:00:00 28.6 5 Norte 17 Norte 0 936.8 0 38
2019-07-28 17:00:00 28.4 4 Noroeste 21 Noroeste 0 936.8 0 38
2019-07-28 16:00:00 27.4 0 Calma 24 Noroeste 0 936.8 0.1 41
2019-07-28 15:00:00 26.2 5 Norte 17 Noroeste 0 936.8 -0.1 44
2019-07-28 14:00:00 25.5 3 Norte 18 Nordeste 0 936.8 0 46
2019-07-28 13:00:00 24.4 4 Nordeste 16 Norte 0 936.7 -0.1 48
2019-07-28 12:00:00 22.7 4 Nordeste 14 Nordeste 0 936.9 0 51
2019-07-28 11:00:00 20.6 3 Norte 14 Nordeste 0 936.8 -0.1 55
2019-07-28 10:00:00 19.6 4 Nordeste 12 Nordeste 0 936.8 -0.1 60
2019-07-28 09:00:00 16.5 0 Calma 10 Nordeste 0 936.9 0 68
2019-07-28 08:00:00 15.4 5 Nordeste 12 Nordeste 0 936.9 0 71
2019-07-28 07:00:00 14.5 5 Nordeste 9 Nordeste 0 936.9 0 71
2019-07-28 06:00:00 15.8 4 Nordeste 10 Nordeste 0 936.9 0.2 66
2019-07-28 05:00:00 16.5 4 Nordeste 8 Nordeste 0 936.9 0 64
2019-07-28 04:00:00 16.9 3 Nordeste 8 Nordeste 0 936.9 0 63
2019-07-28 03:00:00 18.5 2 Norte 6 Noroeste 0 936.7 -0.1 60
2019-07-28 02:00:00 19.2 2 Noroeste 12 Noroeste 0 936.9 0.1 57
2019-07-28 01:00:00 19.9 6 Noroeste 13 Noroeste 0 936.9 0 55
2019-07-28 00:00:00 21.5 5 Noroeste 19 Noroeste 0 936.8 -0.1 53
2019-07-27 23:00:00 22.3 12 Noroeste 20 Noroeste 0 936.8 0 50
2019-07-26 12:00:00 -- -- -- -- -- -- -- -- --
2019-07-26 11:00:00 25.6 3 Sudoeste 11 Oeste 0 936.9 0 51
2019-07-26 10:00:00 23.2 3 Sudoeste 8 Sur 0 936.8 -0.1 53
2019-07-26 09:00:00 22 0 Calma 6 Sur 0 936.8 -0.1 51
2019-07-26 08:00:00 21.5 2 Sudoeste 6 Sudoeste 0 936.9 0.1 48
2019-07-26 07:00:00 22.5 0 Calma 6 Sudeste 0 936.9 0 48
2019-07-26 06:00:00 22.8 0 Calma 6 Nordeste 0 936.9 0 45
2019-07-26 05:00:00 22.6 3 Nordeste 11 Noroeste 0 936.8 -0.1 43
2019-07-26 04:00:00 23 5 Noroeste 12 Noroeste 0 936.9 0.1 42
2019-07-26 03:00:00 23.6 4 Sudoeste 7 Sudoeste 0 936.9 0.1 41
2019-07-26 02:00:00 25.9 3 Nordeste 7 Norte 0 936.9 0 38
2019-07-26 01:00:00 26.7 3 Nordeste 7 Nordeste 0 936.8 0.1 37
2019-07-26 00:00:00 28.2 4 Nordeste 11 Nordeste 0 936.8 -0.1 35
2019-07-25 23:00:00 30.1 5 Nordeste 17 Norte 0 936.9 0 34
2019-07-25 22:00:00 31.6 3 Nordeste 27 Noroeste 0 936.7 -0.2 33
2019-07-25 21:00:00 33.4 10 Sudoeste 24 Oeste 0 936.9 0.1 31
2019-07-25 20:00:00 34.7 9 Oeste 22 Oeste 0 936.9 0 31
2019-07-25 19:00:00 35 7 Sudoeste 29 Sudoeste 0 936.9 0 31
2019-07-25 18:00:00 35 7 Sudoeste 26 Sudoeste 0 936.8 -0.1 30
2019-07-25 17:00:00 35.6 10 Sudoeste 28 Sur 0 936.9 0.1 31
2019-07-25 16:00:00 34.7 3 Sudoeste 32 Oeste 0 936.9 0.1 33
2019-07-25 15:00:00 34.5 2 Sudoeste 21 Sudoeste 0 936.9 0.1 34
2019-07-25 14:00:00 33.6 8 Sudoeste 19 Sur 0 936.8 0 37
2019-07-25 13:00:00 32 3 Sur 13 Sur 0 936.8 0 41
2019-07-25 12:00:00 29.2 3 Sur 12 Sur 0 936.8 -0.1 43
2019-07-25 11:00:00 27.3 5 Sudoeste 13 Sudoeste 0 936.8 0 46
2019-07-25 10:00:00 25.2 6 Sur 14 Sudeste 0 936.8 0 48
2019-07-25 09:00:00 23.1 6 Sudeste 14 Sur 0 936.9 0.1 48
2019-07-25 08:00:00 22.2 5 Sudeste 15 Sur 0 936.8 -0.1 47
2019-07-25 07:00:00 22.8 4 Sudeste 14 Sudeste 0 936.8 0 45
2019-07-25 06:00:00 23.3 5 Sudeste 20 Sudeste 0 936.8 0 44
2019-07-25 05:00:00 23.7 6 Sudeste 19 Sudeste 0 936.9 0.1 43
2019-07-25 04:00:00 24.6 8 Sudeste 22 Sur 0 936.8 -0.1 42
2019-07-25 03:00:00 25 8 Sudeste 25 Sudeste 0 936.8 -0.1 40
2019-07-25 02:00:00 26.1 8 Sudeste 34 Sudeste 0 936.8 -0.1 38
2019-07-25 01:00:00 26.5 10 Sudeste 30 Sudeste 0 936.9 0 36
2019-07-25 00:00:00 28.2 8 Sudeste 29 Sudeste 0 936.9 0 34
2019-07-24 23:00:00 29.8 8 Sudeste 31 Sudeste 0 936.9 0 32
2019-07-24 22:00:00 31.3 7 Sudeste 26 Sudeste 0 936.9 0 30
2019-07-24 21:00:00 33.3 8 Sudeste 31 Sudeste 0 936.9 0 28
2019-07-24 20:00:00 34.9 8 Sudeste 31 Sudeste 0 936.9 0 27
2019-07-24 19:00:00 36.3 8 Sudoeste 24 Sudeste 0 936.9 0 27
2019-07-24 18:00:00 36.6 9 Sur 26 Sur 0 936.9 0 27
2019-07-24 17:00:00 37.9 6 Sur 32 Sur 0 936.9 0.1 26
2019-07-24 16:00:00 36 5 Sudoeste 25 Sudeste 0 936.9 0.1 27
2019-07-24 15:00:00 35.9 7 Sur 30 Sudoeste 0 936.9 0 29
2019-07-24 14:00:00 34.2 7 Sur 27 Sur 0 936.8 0 30
2019-07-24 13:00:00 33.9 8 Sur 23 Sur 0 936.8 -0.1 33
2019-07-24 12:00:00 31.2 8 Sur 24 Sudeste 0 936.9 0 36
2019-07-24 11:00:00 28.5 10 Sudeste 27 Sudeste 0 936.8 -0.1 40
2019-07-24 10:00:00 25.6 8 Sudeste 24 Sur 0 936.9 0 45
2019-07-24 09:00:00 23.3 9 Sudeste 24 Sudeste 0 936.9 0.1 46
2019-07-24 08:00:00 22.7 7 Sudeste 25 Sudeste 0 936.9 0.2 46
2019-07-24 07:00:00 23.4 9 Sudeste 25 Sudeste 0 936.9 0.1 45
2019-07-24 06:00:00 23.9 5 Sudeste 18 Sur 0 936.8 -0.1 46
2019-07-24 05:00:00 24.4 3 Sudeste 15 Sur 0 936.7 -0.2 48
2019-07-24 04:00:00 24.3 5 Este 17 Este 0 936.8 -0.1 50
2019-07-24 03:00:00 24 8 Este 22 Este 0 936.9 0.1 52
2019-07-24 02:00:00 24.3 12 Este 27 Nordeste 0 936.9 0.1 51
2019-07-24 01:00:00 24.7 6 Nordeste 19 Nordeste 0 936.9 0.2 49
2019-07-24 00:00:00 26.1 9 Norte 30 Noroeste 0 936.8 -0.1 46
2019-07-23 23:00:00 26 4 Nordeste 14 Sur 0 936.8 0.2 46
2019-07-23 22:00:00 26.7 4 Sudeste 30 Sudeste 0.2 936.7 -0.2 45
2019-07-23 21:00:00 27.3 4 Oeste 17 Nordeste 0 936.9 0 43
2019-07-23 20:00:00 28.9 4 Este 26 Nordeste 0 936.6 -0.3 40
2019-07-23 19:00:00 27.4 15 Sudoeste 58 Sudoeste 0.8 936.9 0 44
2019-07-23 18:00:00 36 14 Sudeste 36 Sudeste 0 936.9 0.1 26
2019-07-23 17:00:00 37.9 10 Sudeste 39 Sur 0 936.9 0.1 25
2019-07-23 16:00:00 37.3 8 Sudeste 31 Sur 0 936.9 0.1 26
2019-07-23 15:00:00 35.7 4 Sudeste 29 Sur 0 936.8 0 27
2019-07-23 14:00:00 34.8 10 Sur 32 Sur 0 936.8 0 29
2019-07-23 13:00:00 33.8 12 Sur 30 Sur 0 936.8 -0.1 31
2019-07-23 12:00:00 30.8 9 Sudeste 29 Sudeste 0 936.8 0 34
2019-07-23 11:00:00 28.2 11 Sur 32 Sur 0 936.8 0 35
2019-07-23 10:00:00 26.5 4 Sudeste 17 Sudeste 0 936.9 0.1 38
2019-07-23 09:00:00 24.7 4 Sudeste 24 Sudeste 0 936.8 0 42
2019-07-23 08:00:00 22.9 8 Sudeste 27 Sudeste 0 936.8 0 44
2019-07-23 07:00:00 22.8 8 Sudeste 26 Sudeste 0 936.8 -0.1 45
2019-07-23 06:00:00 23.5 10 Sudeste 29 Sudeste 0 936.8 0 45
2019-07-23 05:00:00 23.6 8 Sudeste 31 Sudeste 0 936.8 -0.1 45
2019-07-23 04:00:00 23.9 11 Sudeste 34 Sudeste 0 936.9 0.1 45
2019-07-23 03:00:00 24.6 11 Sudeste 40 Sur 0 936.8 -0.1 45
2019-07-23 02:00:00 25.1 12 Sudeste 44 Sudeste 0 936.9 0.1 46
2019-07-23 01:00:00 25.8 10 Sudeste 34 Sudeste 0 936.8 0 45
2019-07-23 00:00:00 27.1 9 Sudeste 35 Sur 0 936.9 0.1 39
2019-07-22 23:00:00 29.5 13 Sudeste 37 Sudeste 0 936.8 0 28
2019-07-22 22:00:00 31 13 Sudeste 45 Sudeste 0 936.8 0 26
2019-07-22 21:00:00 32.5 16 Sudeste 40 Sur 0 936.8 -0.1 26
2019-07-22 20:00:00 34.5 12 Sudeste 45 Sudeste 0 936.8 -0.1 26
2019-07-22 19:00:00 35.2 13 Sudeste 48 Sudeste 0 936.8 -0.1 28
2019-07-22 18:00:00 36 12 Sudeste 36 Sur 0 936.9 0.2 29
2019-07-22 17:00:00 36.2 10 Sudeste 39 Sudeste 0 936.9 0 30
2019-07-22 16:00:00 36.1 10 Sudeste 40 Sudeste 0 936.9 0.1 30
2019-07-22 15:00:00 34.9 10 Sudeste 33 Sur 0 936.7 -0.1 32
2019-07-22 14:00:00 33.6 11 Sudeste 38 Sudeste 0 936.9 0.1 36
2019-07-22 13:00:00 31.4 12 Sur 36 Sur 0 936.8 -0.1 37
2019-07-22 12:00:00 29.4 11 Sur 33 Sudeste 0 936.8 0 40
2019-07-22 11:00:00 27.2 12 Sudeste 32 Sur 0 936.8 -0.1 45
2019-07-22 10:00:00 25 9 Sudeste 31 Sur 0 936.9 0.2 50
2019-07-22 09:00:00 23.2 8 Sudeste 25 Sudeste 0 936.8 0 55
2019-07-22 08:00:00 22.1 8 Sudeste 28 Sur 0 936.9 0.3 56
2019-07-22 07:00:00 22 9 Sudeste 32 Sur 0 936.7 -0.1 54
2019-07-22 06:00:00 22.2 9 Sudeste 29 Sudeste 0 936.8 0 53
2019-07-22 05:00:00 22.7 8 Sudeste 30 Sudeste 0 936.6 -0.2 51
2019-07-22 04:00:00 23.1 8 Sudeste 33 Sudeste 0 936.8 0 49
2019-07-22 03:00:00 23.7 8 Sudeste 30 Sur 0 936.8 0 49
2019-07-22 02:00:00 24.4 8 Sudeste 42 Sudeste 0 936.8 -0.1 48
2019-07-22 01:00:00 25.5 12 Sudeste 36 Sudeste 0 936.8 0 47
2019-07-22 00:00:00 26.7 9 Sudeste 35 Sudeste 0 936.8 0 43
2019-07-21 23:00:00 28.1 9 Sudeste 36 Sudeste 0 936.9 0 42
2019-07-21 22:00:00 30 9 Sudeste 28 Sur 0 936.8 -0.1 41
2019-07-21 21:00:00 32.2 7 Sudeste 30 Sudeste 0 936.8 -0.1 38
2019-07-21 20:00:00 34.3 12 Sur 31 Sur 0 936.9 0 34
2019-07-21 19:00:00 35.3 11 Sur 35 Sudoeste 0 936.9 0.1 32
2019-07-21 18:00:00 36 10 Sur 31 Sudoeste 0 936.9 0.1 31
2019-07-21 17:00:00 36.4 10 Sur 30 Sur 0 936.9 0.1 30
2019-07-21 16:00:00 36.5 9 Sur 27 Sur 0 936.8 0 32
2019-07-21 15:00:00 35.6 7 Sur 24 Sudeste 0 936.8 0 34
2019-07-21 14:00:00 35 9 Sur 24 Sur 0 936.8 0 35
2019-07-21 13:00:00 33.9 8 Sur 22 Sur 0 936.8 -0.1 39
2019-07-21 12:00:00 30.8 8 Sudeste 21 Sur 0 936.8 -0.1 45
2019-07-21 11:00:00 28 10 Sur 25 Sur 0 936.8 -0.1 49
2019-07-21 10:00:00 25.4 10 Sudeste 29 Sur 0 936.9 0.1 54
2019-07-21 09:00:00 23.5 8 Sudeste 25 Sudeste 0 936.9 0.1 58
2019-07-21 08:00:00 22.5 7 Sudeste 26 Sudeste 0 936.9 0 59
2019-07-21 07:00:00 22.5 8 Sudeste 24 Sudeste 0 936.8 0 57
2019-07-21 06:00:00 23 8 Sudeste 24 Sudeste 0 936.8 0 57
2019-07-21 05:00:00 23.4 8 Sudeste 33 Sur 0 936.9 0 53
2019-07-21 04:00:00 24.3 9 Sudeste 35 Sudeste 0 936.8 0 46
2019-07-21 03:00:00 25.2 10 Sudeste 30 Sudeste 0 936.8 0 41
2019-07-21 02:00:00 26.2 12 Sudeste 33 Sudeste 0 936.9 0.1 40
2019-07-21 01:00:00 26.9 11 Sudeste 33 Sur 0 936.8 0.1 43
2019-07-21 00:00:00 28.4 11 Sudeste 36 Sudeste 0 936.8 -0.1 40
2019-07-20 23:00:00 30 14 Sudeste 33 Sudeste 0 936.8 -0.1 40
2019-07-20 22:00:00 32.4 10 Sudeste 31 Sudeste 0 936.7 -0.2 37
2019-07-20 21:00:00 34.9 5 Sur 19 Sudoeste 0 936.9 0 28
2019-07-20 20:00:00 35.8 7 Sur 16 Sudoeste 0 936.9 0 28
2019-07-20 19:00:00 36.3 5 Sudoeste 27 Oeste 0 936.9 0 28
2019-07-20 18:00:00 35.9 8 Sudoeste 27 Sudoeste 0 936.9 0.1 27
2019-07-20 17:00:00 36.6 4 Sur 23 Sur 0 936.9 0.1 28
2019-07-20 16:00:00 36.7 6 Sur 22 Sudoeste 0 936.9 0.1 29
2019-07-20 15:00:00 35.3 6 Sur 23 Sur 0 936.8 0 32
2019-07-20 14:00:00 33.1 11 Sudoeste 25 Sudoeste 0 936.8 0 34
2019-07-20 13:00:00 32 10 Sudoeste 25 Sudoeste 0 936.8 0 37
2019-07-20 12:00:00 30.3 10 Sudoeste 24 Sudoeste 0 936.8 0 41
2019-07-20 11:00:00 27.7 9 Sur 23 Sur 0 936.8 0.1 47
2019-07-20 10:00:00 25.3 9 Sur 26 Sur 0 936.8 0 53
2019-07-20 09:00:00 22.3 9 Sudeste 29 Sudeste 0 936.8 0 61
2019-07-20 08:00:00 21.2 9 Sudeste 28 Sudeste 0 936.7 -0.2 63
2019-07-20 07:00:00 21.2 11 Sudeste 29 Sudeste 0 936.8 0 63
2019-07-20 06:00:00 21.8 6 Sudeste 28 Sudeste 0 936.8 0 60
2019-07-20 05:00:00 22.4 7 Sudeste 28 Sudeste 0 936.9 0.1 59
2019-07-20 04:00:00 23.2 9 Sudeste 31 Sudeste 0 936.8 0 54
2019-07-20 03:00:00 24.2 9 Sudeste 33 Sudeste 0 936.8 0 47
2019-07-20 02:00:00 25.3 10 Sudeste 32 Sur 0 936.8 0 43
2019-07-20 01:00:00 26.5 10 Sudeste 33 Sudeste 0 936.8 -0.1 37
2019-07-20 00:00:00 27.3 11 Sudeste 31 Sudeste 0 936.8 -0.1 34
2019-07-19 23:00:00 29.1 9 Sudeste 26 Sur 0 936.8 0 31
2019-07-19 22:00:00 30.9 9 Sudeste 28 Sudeste 0 936.9 0 28
2019-07-19 21:00:00 32.8 10 Sudeste 26 Sur 0 936.9 0 26
2019-07-19 20:00:00 34.4 6 Sudeste 26 Sudeste 0 936.8 -0.1 26
2019-07-19 19:00:00 35.5 3 Sudeste 22 Nordeste 0 936.9 0 27
2019-07-19 18:00:00 36.6 5 Sur 23 Sur 0 936.9 0 27
2019-07-19 17:00:00 36.3 4 Oeste 23 Oeste 0 936.9 0.1 27
2019-07-19 16:00:00 35.4 0 Calma 20 Sudoeste 0 936.9 0 29
2019-07-19 15:00:00 35.3 7 Sudoeste 20 Sudoeste 0 936.9 0.1 31
2019-07-19 14:00:00 33.7 7 Sur 20 Oeste 0 936.8 0 36
2019-07-19 13:00:00 32 9 Sur 24 Sur 0 936.9 0.1 39
2019-07-19 12:00:00 29.6 7 Sur 21 Sur 0 936.8 -0.1 44
2019-07-19 11:00:00 26.7 8 Sur 25 Sur 0 936.8 0 48
2019-07-19 10:00:00 24.4 9 Sudeste 26 Sur 0 936.8 0 52
2019-07-19 09:00:00 22 8 Sudeste 26 Sudeste 0 936.9 0.1 54
2019-07-19 08:00:00 21 8 Sudeste 26 Sur 0 936.8 0 56
2019-07-19 07:00:00 21.2 7 Sudeste 27 Sudeste 0 936.8 0 56
2019-07-19 06:00:00 21.7 7 Sudeste 34 Sur 0 936.8 0 56
2019-07-19 05:00:00 22.2 9 Sudeste 26 Sudeste 0 936.8 -0.1 55
2019-07-19 04:00:00 22.7 8 Sudeste 22 Sudeste 0 936.8 0 54
2019-07-19 03:00:00 24.1 6 Sur 22 Sur 0 936.8 -0.1 50
2019-07-19 02:00:00 25.6 6 Sudeste 22 Sudeste 0 936.9 0.1 42
2019-07-19 01:00:00 26.9 4 Sur 10 Sur 0 936.8 0 34
2019-07-19 00:00:00 27.2 0 Calma 3 Sudeste 0 936.9 0 34